Карточка аэропорта USRR

Внимание!
Информация на этой странице в стадии наполнения.
Если вы не увидели какой-то информации, или заметили неточность - пожалуйста сообщите нам!
Спасибо!
Команда RU-STAFF
Название аэропортаСургут
Название аэропорта (англ.)Surgut
Превышение196 ft. (59.7 m.)
Координаты61°20.502', 73°24.168'
Высота перехода700m
Эшелон переходаQFE>=742mm:FL040; QFE<=742mm:FL050
Коды ответчика5570-5577
Зона ОрВДТюмень РПИ (USTV)
Данные METARUSRR 290900Z 32011G16MPS 1100 1000SW R25/1100N SHSN SCT011 BKN018CB M01/M03 Q1006 R25/290055 TEMPO 0500 +SHSN VV002 RMK OBST OBSC QFE749
Проноз погоды (TAF)USRR 290745Z 2909/3009 30010G16MPS 2000 SHSN SCT007 BKN017CB TEMPO 2909/2924 32012G22MPS 0400 +SHSN VV005 FM300000 32005G12MPS 9999 FEW005 BKN020CB TEMPO 3000/3006 5000 -SHSN
NOTAMshow/hide NOTAM
AWOS   TABLE

Информация о ВПП

ВПП Длина ВПП (м.) Покрытие Курс ВПП Частота ILS
072780Асфальтобетон73110.5
252780Асфальтобетон253109.1

Диспетчерские позиции

Позывной Наименование органа УВД Частота
USRR_R_APPСургут - Круг120.300
USRR_TWRСургут-Вышка120.800
USRR_APPСургут-Подход129.300



Спутниковое изображение